sensor_id;sensor_type;location;lat;lon;timestamp;temperature;humidity
21171;DHT22;10743;52.160;20.910;2022-10-28T00:01:16;25.90;38.40
21171;DHT22;10743;52.160;20.910;2022-10-28T00:03:50;25.80;38.40
21171;DHT22;10743;52.160;20.910;2022-10-28T00:06:26;25.80;38.40
21171;DHT22;10743;52.160;20.910;2022-10-28T00:08:56;25.80;38.40
21171;DHT22;10743;52.160;20.910;2022-10-28T00:11:31;25.80;38.40
21171;DHT22;10743;52.160;20.910;2022-10-28T00:14:02;25.80;38.50
21171;DHT22;10743;52.160;20.910;2022-10-28T00:16:32;25.80;38.50
21171;DHT22;10743;52.160;20.910;2022-10-28T00:19:02;25.80;38.50
21171;DHT22;10743;52.160;20.910;2022-10-28T00:21:32;25.80;38.50
21171;DHT22;10743;52.160;20.910;2022-10-28T00:24:00;25.90;38.60
21171;DHT22;10743;52.160;20.910;2022-10-28T00:26:30;25.80;38.60
21171;DHT22;10743;52.160;20.910;2022-10-28T00:28:59;25.80;38.70
21171;DHT22;10743;52.160;20.910;2022-10-28T00:31:31;25.80;38.70
21171;DHT22;10743;52.160;20.910;2022-10-28T00:33:59;25.80;38.70
21171;DHT22;10743;52.160;20.910;2022-10-28T00:36:32;25.80;38.70
21171;DHT22;10743;52.160;20.910;2022-10-28T00:39:02;25.80;38.70
21171;DHT22;10743;52.160;20.910;2022-10-28T00:41:35;25.80;38.70
21171;DHT22;10743;52.160;20.910;2022-10-28T00:47:49;25.80;38.90
21171;DHT22;10743;52.160;20.910;2022-10-28T00:50:38;25.90;38.90
21171;DHT22;10743;52.160;20.910;2022-10-28T00:53:16;25.80;38.70
21171;DHT22;10743;52.160;20.910;2022-10-28T00:55:46;25.90;38.90
21171;DHT22;10743;52.160;20.910;2022-10-28T00:58:14;25.90;39.10
21171;DHT22;10743;52.160;20.910;2022-10-28T01:00:42;25.90;38.90
21171;DHT22;10743;52.160;20.910;2022-10-28T01:03:09;25.90;38.80
21171;DHT22;10743;52.160;20.910;2022-10-28T01:05:38;25.90;38.90
21171;DHT22;10743;52.160;20.910;2022-10-28T01:08:08;25.90;38.80
21171;DHT22;10743;52.160;20.910;2022-10-28T01:22:33;25.90;39.00
21171;DHT22;10743;52.160;20.910;2022-10-28T01:34:05;25.90;38.90
21171;DHT22;10743;52.160;20.910;2022-10-28T01:36:53;25.90;38.90
21171;DHT22;10743;52.160;20.910;2022-10-28T01:39:30;25.80;38.80
21171;DHT22;10743;52.160;20.910;2022-10-28T01:42:24;25.90;38.70
21171;DHT22;10743;52.160;20.910;2022-10-28T01:45:18;25.80;38.60
21171;DHT22;10743;52.160;20.910;2022-10-28T01:47:58;25.80;38.50
21171;DHT22;10743;52.160;20.910;2022-10-28T01:50:51;25.80;38.40
21171;DHT22;10743;52.160;20.910;2022-10-28T01:53:23;25.80;38.40
21171;DHT22;10743;52.160;20.910;2022-10-28T01:55:57;25.80;38.30
21171;DHT22;10743;52.160;20.910;2022-10-28T01:58:28;25.80;38.30
21171;DHT22;10743;52.160;20.910;2022-10-28T02:00:58;25.80;38.20
21171;DHT22;10743;52.160;20.910;2022-10-28T02:03:27;25.80;38.20
21171;DHT22;10743;52.160;20.910;2022-10-28T02:05:55;25.70;38.20
21171;DHT22;10743;52.160;20.910;2022-10-28T02:08:48;25.70;38.10
21171;DHT22;10743;52.160;20.910;2022-10-28T02:11:38;25.70;38.10
21171;DHT22;10743;52.160;20.910;2022-10-28T02:14:28;25.70;38.10
21171;DHT22;10743;52.160;20.910;2022-10-28T02:17:20;25.70;38.10
21171;DHT22;10743;52.160;20.910;2022-10-28T02:20:25;25.70;38.10
21171;DHT22;10743;52.160;20.910;2022-10-28T02:26:14;25.70;38.00
21171;DHT22;10743;52.160;20.910;2022-10-28T02:28:55;25.70;38.00
21171;DHT22;10743;52.160;20.910;2022-10-28T02:34:32;25.60;37.80
21171;DHT22;10743;52.160;20.910;2022-10-28T02:37:05;25.60;37.90
21171;DHT22;10743;52.160;20.910;2022-10-28T02:39:44;25.60;37.90
21171;DHT22;10743;52.160;20.910;2022-10-28T02:42:17;25.60;37.90
21171;DHT22;10743;52.160;20.910;2022-10-28T02:44:49;25.50;38.10
21171;DHT22;10743;52.160;20.910;2022-10-28T02:47:24;25.50;38.20
21171;DHT22;10743;52.160;20.910;2022-10-28T02:49:56;25.50;38.20
21171;DHT22;10743;52.160;20.910;2022-10-28T02:52:30;25.50;38.20
21171;DHT22;10743;52.160;20.910;2022-10-28T02:54:59;25.50;38.20
21171;DHT22;10743;52.160;20.910;2022-10-28T02:57:33;25.50;38.20
21171;DHT22;10743;52.160;20.910;2022-10-28T03:00:05;25.50;38.20
21171;DHT22;10743;52.160;20.910;2022-10-28T03:02:34;25.50;38.20
21171;DHT22;10743;52.160;20.910;2022-10-28T03:05:02;25.50;38.20
21171;DHT22;10743;52.160;20.910;2022-10-28T03:07:30;25.50;38.20
21171;DHT22;10743;52.160;20.910;2022-10-28T03:09:57;25.50;38.20
21171;DHT22;10743;52.160;20.910;2022-10-28T03:12:23;25.50;38.20
21171;DHT22;10743;52.160;20.910;2022-10-28T03:14:50;25.50;38.20
21171;DHT22;10743;52.160;20.910;2022-10-28T03:17:17;25.50;38.20
21171;DHT22;10743;52.160;20.910;2022-10-28T03:19:44;25.50;38.20
21171;DHT22;10743;52.160;20.910;2022-10-28T03:22:11;25.50;38.20
21171;DHT22;10743;52.160;20.910;2022-10-28T03:24:38;25.50;38.20
21171;DHT22;10743;52.160;20.910;2022-10-28T03:27:05;25.50;38.10
21171;DHT22;10743;52.160;20.910;2022-10-28T03:29:32;25.50;38.00
21171;DHT22;10743;52.160;20.910;2022-10-28T03:31:59;25.50;38.00
21171;DHT22;10743;52.160;20.910;2022-10-28T03:34:26;25.50;37.90
21171;DHT22;10743;52.160;20.910;2022-10-28T03:36:53;25.50;37.90
21171;DHT22;10743;52.160;20.910;2022-10-28T03:39:20;25.50;37.90
21171;DHT22;10743;52.160;20.910;2022-10-28T03:41:46;25.40;37.90
21171;DHT22;10743;52.160;20.910;2022-10-28T03:44:13;25.40;38.00
21171;DHT22;10743;52.160;20.910;2022-10-28T03:46:40;25.40;38.70
21171;DHT22;10743;52.160;20.910;2022-10-28T03:49:07;25.40;38.00
21171;DHT22;10743;52.160;20.910;2022-10-28T03:51:34;25.50;38.10
21171;DHT22;10743;52.160;20.910;2022-10-28T03:54:01;25.40;38.10
21171;DHT22;10743;52.160;20.910;2022-10-28T03:56:28;25.40;38.10
21171;DHT22;10743;52.160;20.910;2022-10-28T03:58:54;25.40;38.10
21171;DHT22;10743;52.160;20.910;2022-10-28T04:01:21;25.40;38.10
21171;DHT22;10743;52.160;20.910;2022-10-28T04:03:49;25.40;38.10
21171;DHT22;10743;52.160;20.910;2022-10-28T04:06:15;25.40;38.20
21171;DHT22;10743;52.160;20.910;2022-10-28T04:08:42;25.40;38.20
21171;DHT22;10743;52.160;20.910;2022-10-28T04:11:09;25.30;38.10
21171;DHT22;10743;52.160;20.910;2022-10-28T04:13:36;25.30;38.10
21171;DHT22;10743;52.160;20.910;2022-10-28T04:16:03;25.30;38.10
21171;DHT22;10743;52.160;20.910;2022-10-28T04:18:30;25.30;38.10
21171;DHT22;10743;52.160;20.910;2022-10-28T04:20:57;25.30;38.10
21171;DHT22;10743;52.160;20.910;2022-10-28T04:23:24;25.30;38.10
21171;DHT22;10743;52.160;20.910;2022-10-28T04:25:52;25.40;38.20
21171;DHT22;10743;52.160;20.910;2022-10-28T04:28:20;25.30;38.10
21171;DHT22;10743;52.160;20.910;2022-10-28T04:30:49;25.30;38.10
21171;DHT22;10743;52.160;20.910;2022-10-28T04:33:16;25.30;38.00
21171;DHT22;10743;52.160;20.910;2022-10-28T04:35:44;25.30;38.00
21171;DHT22;10743;52.160;20.910;2022-10-28T04:38:11;25.30;38.00
21171;DHT22;10743;52.160;20.910;2022-10-28T04:40:40;25.30;38.00
21171;DHT22;10743;52.160;20.910;2022-10-28T04:43:07;25.30;37.90
21171;DHT22;10743;52.160;20.910;2022-10-28T04:45:36;25.30;37.90
21171;DHT22;10743;52.160;20.910;2022-10-28T04:48:04;25.30;38.00
21171;DHT22;10743;52.160;20.910;2022-10-28T04:50:31;25.20;37.90
21171;DHT22;10743;52.160;20.910;2022-10-28T04:53:08;25.20;37.90
21171;DHT22;10743;52.160;20.910;2022-10-28T04:55:35;25.20;37.90
21171;DHT22;10743;52.160;20.910;2022-10-28T04:58:02;25.20;37.90
21171;DHT22;10743;52.160;20.910;2022-10-28T05:00:30;25.20;38.00
21171;DHT22;10743;52.160;20.910;2022-10-28T05:03:00;25.20;37.90
21171;DHT22;10743;52.160;20.910;2022-10-28T05:05:28;25.20;37.90
21171;DHT22;10743;52.160;20.910;2022-10-28T05:07:55;25.20;38.00
21171;DHT22;10743;52.160;20.910;2022-10-28T05:10:22;25.20;38.00
21171;DHT22;10743;52.160;20.910;2022-10-28T05:12:49;25.20;38.00
21171;DHT22;10743;52.160;20.910;2022-10-28T05:15:16;25.20;38.10
21171;DHT22;10743;52.160;20.910;2022-10-28T05:17:45;25.20;38.10
21171;DHT22;10743;52.160;20.910;2022-10-28T05:20:14;25.10;38.10
21171;DHT22;10743;52.160;20.910;2022-10-28T05:22:49;25.20;38.10
21171;DHT22;10743;52.160;20.910;2022-10-28T05:25:20;25.20;38.20
21171;DHT22;10743;52.160;20.910;2022-10-28T05:27:47;25.20;38.20
21171;DHT22;10743;52.160;20.910;2022-10-28T05:30:14;25.20;38.20
21171;DHT22;10743;52.160;20.910;2022-10-28T05:32:41;25.20;38.20
21171;DHT22;10743;52.160;20.910;2022-10-28T05:35:08;25.20;38.20
21171;DHT22;10743;52.160;20.910;2022-10-28T05:37:36;25.20;38.30
21171;DHT22;10743;52.160;20.910;2022-10-28T05:40:03;25.20;38.40
21171;DHT22;10743;52.160;20.910;2022-10-28T05:42:30;25.20;38.40
21171;DHT22;10743;52.160;20.910;2022-10-28T05:44:57;25.20;38.50
21171;DHT22;10743;52.160;20.910;2022-10-28T05:47:24;25.20;38.50
21171;DHT22;10743;52.160;20.910;2022-10-28T05:49:51;25.20;38.50
21171;DHT22;10743;52.160;20.910;2022-10-28T05:52:18;25.30;38.50
21171;DHT22;10743;52.160;20.910;2022-10-28T05:54:45;25.30;38.50
21171;DHT22;10743;52.160;20.910;2022-10-28T05:57:12;25.30;38.60
21171;DHT22;10743;52.160;20.910;2022-10-28T05:59:39;25.30;38.60
21171;DHT22;10743;52.160;20.910;2022-10-28T06:02:12;25.40;38.90
21171;DHT22;10743;52.160;20.910;2022-10-28T06:04:40;25.40;38.80
21171;DHT22;10743;52.160;20.910;2022-10-28T06:07:08;25.40;39.00
21171;DHT22;10743;52.160;20.910;2022-10-28T06:09:35;25.40;38.90
21171;DHT22;10743;52.160;20.910;2022-10-28T06:12:02;25.40;39.00
21171;DHT22;10743;52.160;20.910;2022-10-28T06:14:29;25.50;39.30
21171;DHT22;10743;52.160;20.910;2022-10-28T06:16:56;25.50;39.50
21171;DHT22;10743;52.160;20.910;2022-10-28T06:19:22;25.50;39.40
21171;DHT22;10743;52.160;20.910;2022-10-28T06:21:49;25.50;39.30
21171;DHT22;10743;52.160;20.910;2022-10-28T06:24:16;25.50;39.50
21171;DHT22;10743;52.160;20.910;2022-10-28T06:26:43;25.50;39.60
21171;DHT22;10743;52.160;20.910;2022-10-28T06:29:10;25.60;39.50
21171;DHT22;10743;52.160;20.910;2022-10-28T06:31:41;25.60;39.50
21171;DHT22;10743;52.160;20.910;2022-10-28T06:34:09;25.60;39.60
21171;DHT22;10743;52.160;20.910;2022-10-28T06:36:36;25.60;39.70
21171;DHT22;10743;52.160;20.910;2022-10-28T06:39:04;25.60;39.80
21171;DHT22;10743;52.160;20.910;2022-10-28T06:41:31;25.70;39.90
21171;DHT22;10743;52.160;20.910;2022-10-28T06:43:58;25.70;40.00
21171;DHT22;10743;52.160;20.910;2022-10-28T06:46:26;25.70;40.10
21171;DHT22;10743;52.160;20.910;2022-10-28T06:48:53;25.70;40.20
21171;DHT22;10743;52.160;20.910;2022-10-28T06:51:21;25.80;40.50
21171;DHT22;10743;52.160;20.910;2022-10-28T06:53:49;25.80;40.60
21171;DHT22;10743;52.160;20.910;2022-10-28T06:56:17;25.80;40.50
21171;DHT22;10743;52.160;20.910;2022-10-28T06:58:49;25.90;40.50
21171;DHT22;10743;52.160;20.910;2022-10-28T07:01:16;25.90;40.90
21171;DHT22;10743;52.160;20.910;2022-10-28T07:03:45;25.90;41.00
21171;DHT22;10743;52.160;20.910;2022-10-28T07:06:12;26.00;40.90
21171;DHT22;10743;52.160;20.910;2022-10-28T07:08:44;26.00;40.80
21171;DHT22;10743;52.160;20.910;2022-10-28T07:11:11;26.00;41.10
21171;DHT22;10743;52.160;20.910;2022-10-28T07:13:38;26.10;41.10
21171;DHT22;10743;52.160;20.910;2022-10-28T07:16:08;26.10;41.10
21171;DHT22;10743;52.160;20.910;2022-10-28T07:18:34;26.20;41.40
21171;DHT22;10743;52.160;20.910;2022-10-28T07:21:01;26.20;41.50
21171;DHT22;10743;52.160;20.910;2022-10-28T07:23:29;26.30;41.50
21171;DHT22;10743;52.160;20.910;2022-10-28T07:25:59;26.40;41.80
21171;DHT22;10743;52.160;20.910;2022-10-28T07:28:27;26.40;41.70
21171;DHT22;10743;52.160;20.910;2022-10-28T07:30:54;26.50;41.80
21171;DHT22;10743;52.160;20.910;2022-10-28T07:33:21;26.50;41.80
21171;DHT22;10743;52.160;20.910;2022-10-28T07:35:47;26.60;41.90
21171;DHT22;10743;52.160;20.910;2022-10-28T07:38:14;26.70;42.10
21171;DHT22;10743;52.160;20.910;2022-10-28T07:40:41;26.70;42.10
21171;DHT22;10743;52.160;20.910;2022-10-28T07:43:08;26.80;42.10
21171;DHT22;10743;52.160;20.910;2022-10-28T07:45:36;26.80;42.40
21171;DHT22;10743;52.160;20.910;2022-10-28T07:48:04;26.90;42.40
21171;DHT22;10743;52.160;20.910;2022-10-28T07:50:31;27.00;42.60
21171;DHT22;10743;52.160;20.910;2022-10-28T07:52:58;27.10;42.60
21171;DHT22;10743;52.160;20.910;2022-10-28T07:55:25;27.20;42.80
21171;DHT22;10743;52.160;20.910;2022-10-28T07:57:52;27.30;42.80
21171;DHT22;10743;52.160;20.910;2022-10-28T08:00:20;27.30;42.70
21171;DHT22;10743;52.160;20.910;2022-10-28T08:02:47;27.50;42.70
21171;DHT22;10743;52.160;20.910;2022-10-28T08:05:14;27.50;42.60
21171;DHT22;10743;52.160;20.910;2022-10-28T08:07:41;27.60;42.70
21171;DHT22;10743;52.160;20.910;2022-10-28T08:10:08;27.70;43.00
21171;DHT22;10743;52.160;20.910;2022-10-28T08:12:35;27.70;42.80
21171;DHT22;10743;52.160;20.910;2022-10-28T08:15:02;27.80;42.60
21171;DHT22;10743;52.160;20.910;2022-10-28T08:17:29;27.90;42.60
21171;DHT22;10743;52.160;20.910;2022-10-28T08:19:56;28.00;42.20
21171;DHT22;10743;52.160;20.910;2022-10-28T08:22:23;28.10;42.30
21171;DHT22;10743;52.160;20.910;2022-10-28T08:24:50;28.10;42.00
21171;DHT22;10743;52.160;20.910;2022-10-28T08:27:17;28.30;42.00
21171;DHT22;10743;52.160;20.910;2022-10-28T08:29:44;28.30;41.80
21171;DHT22;10743;52.160;20.910;2022-10-28T08:32:10;28.40;41.90
21171;DHT22;10743;52.160;20.910;2022-10-28T08:34:37;28.50;42.00
21171;DHT22;10743;52.160;20.910;2022-10-28T08:37:09;28.60;42.00
21171;DHT22;10743;52.160;20.910;2022-10-28T08:39:36;28.70;41.90
21171;DHT22;10743;52.160;20.910;2022-10-28T08:42:37;28.70;41.90
21171;DHT22;10743;52.160;20.910;2022-10-28T08:45:24;28.80;41.60
21171;DHT22;10743;52.160;20.910;2022-10-28T08:48:36;28.90;41.30
21171;DHT22;10743;52.160;20.910;2022-10-28T08:51:13;28.90;41.10
21171;DHT22;10743;52.160;20.910;2022-10-28T08:53:47;29.00;41.20
21171;DHT22;10743;52.160;20.910;2022-10-28T08:56:29;29.00;41.20
21171;DHT22;10743;52.160;20.910;2022-10-28T08:59:01;29.10;41.10
21171;DHT22;10743;52.160;20.910;2022-10-28T09:01:43;29.10;41.30
21171;DHT22;10743;52.160;20.910;2022-10-28T09:04:35;29.20;41.10
21171;DHT22;10743;52.160;20.910;2022-10-28T09:07:07;29.20;41.10
21171;DHT22;10743;52.160;20.910;2022-10-28T09:09:48;29.30;41.10
21171;DHT22;10743;52.160;20.910;2022-10-28T09:18:51;29.50;41.10
21171;DHT22;10743;52.160;20.910;2022-10-28T09:21:38;29.50;41.10
21171;DHT22;10743;52.160;20.910;2022-10-28T09:25:04;29.60;41.30
21171;DHT22;10743;52.160;20.910;2022-10-28T09:36:03;29.90;40.90
21171;DHT22;10743;52.160;20.910;2022-10-28T09:38:35;29.90;41.10
21171;DHT22;10743;52.160;20.910;2022-10-28T09:41:10;30.00;41.10
21171;DHT22;10743;52.160;20.910;2022-10-28T09:43:52;30.10;40.70
21171;DHT22;10743;52.160;20.910;2022-10-28T09:46:24;30.10;40.90
21171;DHT22;10743;52.160;20.910;2022-10-28T09:48:57;30.30;40.80
21171;DHT22;10743;52.160;20.910;2022-10-28T09:54:01;30.40;40.40
21171;DHT22;10743;52.160;20.910;2022-10-28T09:56:28;30.50;40.40
21171;DHT22;10743;52.160;20.910;2022-10-28T09:59:00;30.50;40.40
21171;DHT22;10743;52.160;20.910;2022-10-28T10:01:35;30.60;40.40
21171;DHT22;10743;52.160;20.910;2022-10-28T10:04:16;30.60;40.50
21171;DHT22;10743;52.160;20.910;2022-10-28T10:06:47;30.70;40.70
21171;DHT22;10743;52.160;20.910;2022-10-28T10:09:23;30.70;40.70
21171;DHT22;10743;52.160;20.910;2022-10-28T10:11:55;30.80;40.70
21171;DHT22;10743;52.160;20.910;2022-10-28T10:14:29;30.80;40.70
21171;DHT22;10743;52.160;20.910;2022-10-28T10:17:11;30.90;40.70
21171;DHT22;10743;52.160;20.910;2022-10-28T10:20:11;31.00;40.10
21171;DHT22;10743;52.160;20.910;2022-10-28T10:22:44;31.00;40.20
21171;DHT22;10743;52.160;20.910;2022-10-28T10:27:54;31.10;40.40
21171;DHT22;10743;52.160;20.910;2022-10-28T10:31:08;31.20;40.30
21171;DHT22;10743;52.160;20.910;2022-10-28T10:33:19;31.20;39.90
21171;DHT22;10743;52.160;20.910;2022-10-28T10:38:37;31.30;39.90
21171;DHT22;10743;52.160;20.910;2022-10-28T10:41:04;31.40;40.20
21171;DHT22;10743;52.160;20.910;2022-10-28T10:43:33;31.50;40.50
21171;DHT22;10743;52.160;20.910;2022-10-28T10:48:34;31.60;39.70
21171;DHT22;10743;52.160;20.910;2022-10-28T10:51:23;31.60;40.00
21171;DHT22;10743;52.160;20.910;2022-10-28T10:53:55;31.70;39.70
21171;DHT22;10743;52.160;20.910;2022-10-28T10:56:30;31.80;39.60
21171;DHT22;10743;52.160;20.910;2022-10-28T10:59:01;31.90;39.60
21171;DHT22;10743;52.160;20.910;2022-10-28T11:01:37;31.90;39.20
21171;DHT22;10743;52.160;20.910;2022-10-28T11:04:06;32.00;38.90
21171;DHT22;10743;52.160;20.910;2022-10-28T11:06:39;32.10;38.90
21171;DHT22;10743;52.160;20.910;2022-10-28T11:09:35;32.20;39.20
21171;DHT22;10743;52.160;20.910;2022-10-28T11:12:18;32.20;38.30
21171;DHT22;10743;52.160;20.910;2022-10-28T11:14:58;32.30;38.30
21171;DHT22;10743;52.160;20.910;2022-10-28T11:17:31;32.50;38.10
21171;DHT22;10743;52.160;20.910;2022-10-28T11:20:25;32.50;38.20
21171;DHT22;10743;52.160;20.910;2022-10-28T11:26:27;32.60;38.20
21171;DHT22;10743;52.160;20.910;2022-10-28T11:29:10;32.60;38.10
21171;DHT22;10743;52.160;20.910;2022-10-28T11:31:49;32.70;37.70
21171;DHT22;10743;52.160;20.910;2022-10-28T11:34:49;32.80;37.50
21171;DHT22;10743;52.160;20.910;2022-10-28T11:40:54;32.90;37.50
21171;DHT22;10743;52.160;20.910;2022-10-28T11:43:47;32.90;38.20
21171;DHT22;10743;52.160;20.910;2022-10-28T11:46:45;33.00;37.30
21171;DHT22;10743;52.160;20.910;2022-10-28T11:50:08;33.00;37.00
21171;DHT22;10743;52.160;20.910;2022-10-28T11:52:59;33.10;37.10
21171;DHT22;10743;52.160;20.910;2022-10-28T12:02:24;33.20;36.90
21171;DHT22;10743;52.160;20.910;2022-10-28T12:05:09;33.20;36.40
21171;DHT22;10743;52.160;20.910;2022-10-28T12:11:14;33.30;36.40
21171;DHT22;10743;52.160;20.910;2022-10-28T12:20:22;33.40;36.30
21171;DHT22;10743;52.160;20.910;2022-10-28T12:23:05;33.40;36.20
21171;DHT22;10743;52.160;20.910;2022-10-28T12:25:41;33.40;36.30
21171;DHT22;10743;52.160;20.910;2022-10-28T12:28:24;33.40;36.80
21171;DHT22;10743;52.160;20.910;2022-10-28T12:30:55;33.40;36.80
21171;DHT22;10743;52.160;20.910;2022-10-28T12:33:41;33.40;36.40
21171;DHT22;10743;52.160;20.910;2022-10-28T12:36:34;33.40;36.20
21171;DHT22;10743;52.160;20.910;2022-10-28T12:39:13;33.40;36.40
21171;DHT22;10743;52.160;20.910;2022-10-28T12:42:38;33.40;36.50
21171;DHT22;10743;52.160;20.910;2022-10-28T12:44:57;33.40;36.70
21171;DHT22;10743;52.160;20.910;2022-10-28T12:47:45;33.40;36.60
21171;DHT22;10743;52.160;20.910;2022-10-28T12:56:32;33.40;37.10
21171;DHT22;10743;52.160;20.910;2022-10-28T12:59:20;33.40;36.50
21171;DHT22;10743;52.160;20.910;2022-10-28T13:01:50;33.50;36.60
21171;DHT22;10743;52.160;20.910;2022-10-28T13:04:18;33.40;36.40
21171;DHT22;10743;52.160;20.910;2022-10-28T13:10:06;33.50;36.50
21171;DHT22;10743;52.160;20.910;2022-10-28T13:13:02;33.50;36.30
21171;DHT22;10743;52.160;20.910;2022-10-28T13:15:53;33.60;36.20
21171;DHT22;10743;52.160;20.910;2022-10-28T13:18:54;33.50;36.30
21171;DHT22;10743;52.160;20.910;2022-10-28T13:21:38;33.60;36.20
21171;DHT22;10743;52.160;20.910;2022-10-28T13:24:20;33.60;36.20
21171;DHT22;10743;52.160;20.910;2022-10-28T13:26:52;33.60;36.10
21171;DHT22;10743;52.160;20.910;2022-10-28T13:29:26;33.60;36.20
21171;DHT22;10743;52.160;20.910;2022-10-28T13:31:55;33.60;36.20
21171;DHT22;10743;52.160;20.910;2022-10-28T13:34:42;33.60;36.20
21171;DHT22;10743;52.160;20.910;2022-10-28T13:37:19;33.60;36.30
21171;DHT22;10743;52.160;20.910;2022-10-28T13:39:47;33.60;36.30
21171;DHT22;10743;52.160;20.910;2022-10-28T13:44:58;33.60;36.30
21171;DHT22;10743;52.160;20.910;2022-10-28T13:47:33;33.60;36.40
21171;DHT22;10743;52.160;20.910;2022-10-28T13:52:38;33.60;36.40
21171;DHT22;10743;52.160;20.910;2022-10-28T13:57:43;33.50;37.00
21171;DHT22;10743;52.160;20.910;2022-10-28T14:02:58;33.50;36.40
21171;DHT22;10743;52.160;20.910;2022-10-28T14:08:05;33.40;36.70
21171;DHT22;10743;52.160;20.910;2022-10-28T14:10:38;33.40;36.90
21171;DHT22;10743;52.160;20.910;2022-10-28T14:13:19;33.40;36.90
21171;DHT22;10743;52.160;20.910;2022-10-28T14:15:47;33.30;36.90
21171;DHT22;10743;52.160;20.910;2022-10-28T14:21:04;33.30;37.10
21171;DHT22;10743;52.160;20.910;2022-10-28T14:26:00;33.30;37.20
21171;DHT22;10743;52.160;20.910;2022-10-28T14:50:22;33.10;37.80
21171;DHT22;10743;52.160;20.910;2022-10-28T14:52:53;33.10;38.10
21171;DHT22;10743;52.160;20.910;2022-10-28T14:55:26;33.10;38.40
21171;DHT22;10743;52.160;20.910;2022-10-28T14:58:35;33.00;38.70
21171;DHT22;10743;52.160;20.910;2022-10-28T15:03:43;32.90;39.00
21171;DHT22;10743;52.160;20.910;2022-10-28T15:06:30;32.80;39.20
21171;DHT22;10743;52.160;20.910;2022-10-28T15:09:17;32.80;39.40
21171;DHT22;10743;52.160;20.910;2022-10-28T15:11:48;32.70;39.40
21171;DHT22;10743;52.160;20.910;2022-10-28T15:14:27;32.70;39.70
21171;DHT22;10743;52.160;20.910;2022-10-28T15:16:58;32.70;39.60
21171;DHT22;10743;52.160;20.910;2022-10-28T15:19:32;32.60;39.60
21171;DHT22;10743;52.160;20.910;2022-10-28T15:22:17;32.60;39.60
21171;DHT22;10743;52.160;20.910;2022-10-28T15:25:05;32.50;39.60
21171;DHT22;10743;52.160;20.910;2022-10-28T15:27:39;32.50;39.60
21171;DHT22;10743;52.160;20.910;2022-10-28T15:30:21;32.50;39.60
21171;DHT22;10743;52.160;20.910;2022-10-28T15:32:51;32.40;39.60
21171;DHT22;10743;52.160;20.910;2022-10-28T15:38:25;32.30;39.70
21171;DHT22;10743;52.160;20.910;2022-10-28T15:40:58;32.30;39.70
21171;DHT22;10743;52.160;20.910;2022-10-28T15:43:27;32.20;39.70
21171;DHT22;10743;52.160;20.910;2022-10-28T15:46:10;32.20;39.70
21171;DHT22;10743;52.160;20.910;2022-10-28T15:48:41;32.10;39.70
21171;DHT22;10743;52.160;20.910;2022-10-28T15:51:16;32.10;39.70
21171;DHT22;10743;52.160;20.910;2022-10-28T15:53:44;32.10;39.90
21171;DHT22;10743;52.160;20.910;2022-10-28T15:56:27;32.00;39.90
21171;DHT22;10743;52.160;20.910;2022-10-28T16:01:30;32.00;39.90
21171;DHT22;10743;52.160;20.910;2022-10-28T16:07:09;32.00;40.00
21171;DHT22;10743;52.160;20.910;2022-10-28T16:09:44;32.00;39.90
21171;DHT22;10743;52.160;20.910;2022-10-28T16:12:15;31.90;39.80
21171;DHT22;10743;52.160;20.910;2022-10-28T16:14:53;31.90;39.80
21171;DHT22;10743;52.160;20.910;2022-10-28T16:17:24;31.90;39.90
21171;DHT22;10743;52.160;20.910;2022-10-28T16:19:58;31.90;40.00
21171;DHT22;10743;52.160;20.910;2022-10-28T16:22:29;31.90;40.00
21171;DHT22;10743;52.160;20.910;2022-10-28T16:24:56;31.90;40.00
21171;DHT22;10743;52.160;20.910;2022-10-28T16:27:25;31.90;40.00
21171;DHT22;10743;52.160;20.910;2022-10-28T16:29:53;31.90;40.00
21171;DHT22;10743;52.160;20.910;2022-10-28T16:32:26;31.90;40.10
21171;DHT22;10743;52.160;20.910;2022-10-28T16:35:01;31.90;40.00
21171;DHT22;10743;52.160;20.910;2022-10-28T16:37:30;31.90;40.10
21171;DHT22;10743;52.160;20.910;2022-10-28T16:39:58;31.90;39.90
21171;DHT22;10743;52.160;20.910;2022-10-28T16:42:25;31.90;39.90
21171;DHT22;10743;52.160;20.910;2022-10-28T16:44:52;31.90;39.90
21171;DHT22;10743;52.160;20.910;2022-10-28T16:47:20;31.90;39.90
21171;DHT22;10743;52.160;20.910;2022-10-28T16:49:47;31.90;39.80
21171;DHT22;10743;52.160;20.910;2022-10-28T16:52:25;31.90;39.80
21171;DHT22;10743;52.160;20.910;2022-10-28T16:54:53;31.90;40.00
21171;DHT22;10743;52.160;20.910;2022-10-28T16:57:20;31.90;40.00
21171;DHT22;10743;52.160;20.910;2022-10-28T16:59:53;31.90;40.00
21171;DHT22;10743;52.160;20.910;2022-10-28T17:02:34;31.90;40.10
21171;DHT22;10743;52.160;20.910;2022-10-28T17:05:02;31.80;40.20
21171;DHT22;10743;52.160;20.910;2022-10-28T17:07:32;31.80;40.10
21171;DHT22;10743;52.160;20.910;2022-10-28T17:09:59;31.80;40.10
21171;DHT22;10743;52.160;20.910;2022-10-28T17:12:26;31.80;40.20
21171;DHT22;10743;52.160;20.910;2022-10-28T17:14:53;31.80;40.20
21171;DHT22;10743;52.160;20.910;2022-10-28T17:17:20;31.80;40.10
21171;DHT22;10743;52.160;20.910;2022-10-28T17:19:47;31.80;40.10
21171;DHT22;10743;52.160;20.910;2022-10-28T17:22:14;31.90;40.20
21171;DHT22;10743;52.160;20.910;2022-10-28T17:24:41;31.90;40.20
21171;DHT22;10743;52.160;20.910;2022-10-28T17:27:08;31.80;40.20
21171;DHT22;10743;52.160;20.910;2022-10-28T17:29:35;31.80;40.20
21171;DHT22;10743;52.160;20.910;2022-10-28T17:32:02;31.80;40.20
21171;DHT22;10743;52.160;20.910;2022-10-28T17:34:29;31.90;40.20
21171;DHT22;10743;52.160;20.910;2022-10-28T17:36:56;31.80;40.30
21171;DHT22;10743;52.160;20.910;2022-10-28T17:39:22;31.80;40.30
21171;DHT22;10743;52.160;20.910;2022-10-28T17:41:52;31.80;40.30
21171;DHT22;10743;52.160;20.910;2022-10-28T17:44:19;31.80;40.30
21171;DHT22;10743;52.160;20.910;2022-10-28T17:46:47;31.80;40.30
21171;DHT22;10743;52.160;20.910;2022-10-28T17:49:14;31.80;40.30
21171;DHT22;10743;52.160;20.910;2022-10-28T17:51:41;31.70;40.40
21171;DHT22;10743;52.160;20.910;2022-10-28T17:54:09;31.70;40.40
21171;DHT22;10743;52.160;20.910;2022-10-28T17:56:36;31.70;40.40
21171;DHT22;10743;52.160;20.910;2022-10-28T17:59:04;31.70;40.40
21171;DHT22;10743;52.160;20.910;2022-10-28T18:01:33;31.70;40.40
21171;DHT22;10743;52.160;20.910;2022-10-28T18:04:00;31.70;40.40
21171;DHT22;10743;52.160;20.910;2022-10-28T18:06:29;31.70;40.40
21171;DHT22;10743;52.160;20.910;2022-10-28T18:08:56;31.70;40.40
21171;DHT22;10743;52.160;20.910;2022-10-28T18:11:24;31.70;40.40